Time;durP1;ratioP1;P1;durP2;ratioP2;P2;SDS_P1;SDS_P2;PMS_P1;PMS_P2;Temp;Humidity;BMP_temperature;BMP_pressure;BME280_temperature;BME280_humidity;BME280_pressure;Samples;Min_cycle;Max_cycle;Signal;HPM_P1;HPM_P2
2024/02/28 00:00:52;;;;;;;211.47;58.37;;;;;;;;;;4973269;28;20185;-44
2024/02/28 00:03:18;;;;;;;208.10;55.78;;;;;;;;;;4973475;28;20500;-44
2024/02/28 00:05:45;;;;;;;209.67;56.47;;;;;;;;;;4973078;28;20220;-45
2024/02/28 00:08:11;;;;;;;208.77;56.78;;;;;;;;;;4973258;28;20417;-46
2024/02/28 00:10:37;;;;;;;207.43;55.73;;;;;;;;;;4973094;28;20746;-45
2024/02/28 00:13:03;;;;;;;208.47;56.47;;;;;;;;;;4973255;28;20528;-43
2024/02/28 00:15:29;;;;;;;212.43;58.33;;;;;;;;;;4988025;28;20667;-44
2024/02/28 00:17:55;;;;;;;209.00;57.60;;;;;;;;;;4985369;28;20589;-46
2024/02/28 00:20:21;;;;;;;206.97;56.10;;;;;;;;;;4991817;28;20416;-43
2024/02/28 00:22:47;;;;;;;211.03;58.80;;;;;;;;;;4990122;28;20446;-44
2024/02/28 00:25:13;;;;;;;212.80;59.90;;;;;;;;;;4988423;28;20423;-43
2024/02/28 00:27:39;;;;;;;207.18;56.70;;;;;;;;;;4987100;28;20181;-43
2024/02/28 00:30:06;;;;;;;210.65;57.95;;;;;;;;;;4989208;28;20681;-44
2024/02/28 00:32:32;;;;;;;206.57;55.20;;;;;;;;;;4988125;28;20612;-44
2024/02/28 00:34:58;;;;;;;210.05;57.92;;;;;;;;;;4986646;28;20189;-52
2024/02/28 00:37:25;;;;;;;207.43;55.60;;;;;;;;;;4986489;28;20227;-45
2024/02/28 00:39:51;;;;;;;207.27;54.92;;;;;;;;;;4987292;28;20798;-44
2024/02/28 00:42:17;;;;;;;207.32;55.47;;;;;;;;;;4986417;28;20295;-43
2024/02/28 00:44:43;;;;;;;213.75;58.97;;;;;;;;;;4984572;28;20216;-44
2024/02/28 00:47:09;;;;;;;206.77;54.25;;;;;;;;;;4991162;28;20217;-43
2024/02/28 00:49:35;;;;;;;207.75;55.33;;;;;;;;;;4989902;28;20684;-44
2024/02/28 00:52:01;;;;;;;210.10;55.40;;;;;;;;;;4975987;28;20281;-43
2024/02/28 00:54:27;;;;;;;207.03;54.30;;;;;;;;;;4988143;28;20268;-44
2024/02/28 00:56:53;;;;;;;209.02;55.47;;;;;;;;;;4983002;28;21005;-46
2024/02/28 00:59:19;;;;;;;210.47;55.90;;;;;;;;;;4982485;28;20193;-45
2024/02/28 01:01:45;;;;;;;206.47;53.90;;;;;;;;;;4988968;28;20526;-44
2024/02/28 01:04:11;;;;;;;207.07;55.13;;;;;;;;;;4989567;28;20427;-43
2024/02/28 01:06:37;;;;;;;210.97;57.57;;;;;;;;;;4987467;28;20902;-44
2024/02/28 01:09:04;;;;;;;206.75;54.97;;;;;;;;;;4990717;28;20516;-44
2024/02/28 01:11:30;;;;;;;204.13;54.13;;;;;;;;;;4987556;28;20197;-47
2024/02/28 01:13:56;;;;;;;207.20;54.80;;;;;;;;;;4984505;28;20775;-45
2024/02/28 01:16:22;;;;;;;205.23;54.30;;;;;;;;;;4990668;28;20818;-44
2024/02/28 01:18:48;;;;;;;205.47;54.60;;;;;;;;;;4989377;28;20813;-44
2024/02/28 01:21:14;;;;;;;204.87;54.77;;;;;;;;;;4982198;28;20527;-44
2024/02/28 01:23:40;;;;;;;203.50;54.00;;;;;;;;;;4985983;28;20432;-44
2024/02/28 01:26:06;;;;;;;204.02;53.40;;;;;;;;;;4988222;28;20421;-45
2024/02/28 01:28:33;;;;;;;202.67;53.07;;;;;;;;;;4987422;28;20271;-46
2024/02/28 01:31:00;;;;;;;203.43;52.90;;;;;;;;;;4990400;28;20554;-44
2024/02/28 01:33:26;;;;;;;202.63;54.40;;;;;;;;;;4989305;28;20641;-44
2024/02/28 01:35:52;;;;;;;201.63;53.47;;;;;;;;;;4987528;28;20207;-44
2024/02/28 01:38:18;;;;;;;200.60;52.87;;;;;;;;;;4985989;28;20420;-44
2024/02/28 01:40:47;;;;;;;203.00;54.50;;;;;;;;;;4984012;28;20488;-46
2024/02/28 01:43:13;;;;;;;202.10;54.47;;;;;;;;;;4990867;28;20897;-45
2024/02/28 01:45:39;;;;;;;205.13;55.60;;;;;;;;;;4988736;28;20215;-44
2024/02/28 01:48:10;;;;;;;201.95;53.45;;;;;;;;;;4991197;28;20178;-44
2024/02/28 01:50:36;;;;;;;199.98;52.67;;;;;;;;;;4986004;28;20200;-44
2024/02/28 01:53:03;;;;;;;201.30;54.05;;;;;;;;;;4984505;28;20196;-46
2024/02/28 01:55:29;;;;;;;204.13;54.75;;;;;;;;;;4987961;28;20235;-45
2024/02/28 01:57:56;;;;;;;203.07;54.45;;;;;;;;;;4994752;28;20189;-45
2024/02/28 02:00:22;;;;;;;202.02;54.17;;;;;;;;;;4990655;28;20180;-43
2024/02/28 02:02:48;;;;;;;201.95;53.30;;;;;;;;;;4990451;28;20205;-45
2024/02/28 02:05:16;;;;;;;206.68;56.42;;;;;;;;;;4991999;28;20181;-44
2024/02/28 02:07:42;;;;;;;199.15;52.92;;;;;;;;;;4991948;28;20212;-44
2024/02/28 02:10:11;;;;;;;204.63;55.08;;;;;;;;;;4987871;28;20213;-44
2024/02/28 02:12:37;;;;;;;200.23;53.15;;;;;;;;;;4994144;28;20201;-44
2024/02/28 02:15:04;;;;;;;201.33;53.67;;;;;;;;;;4992623;28;20188;-46
2024/02/28 02:17:30;;;;;;;200.85;53.53;;;;;;;;;;4991263;28;20470;-44
2024/02/28 02:19:56;;;;;;;204.20;55.00;;;;;;;;;;4989450;28;20658;-45
2024/02/28 02:22:22;;;;;;;200.18;53.10;;;;;;;;;;4989908;28;20202;-47
2024/02/28 02:24:48;;;;;;;203.43;54.33;;;;;;;;;;4992229;28;20208;-47
2024/02/28 02:27:14;;;;;;;203.97;55.10;;;;;;;;;;4994264;28;20216;-44
2024/02/28 02:29:40;;;;;;;206.03;56.17;;;;;;;;;;4992391;28;20455;-45
2024/02/28 02:32:06;;;;;;;203.00;54.45;;;;;;;;;;4990889;28;20465;-45
2024/02/28 02:34:32;;;;;;;205.68;55.85;;;;;;;;;;4987542;28;20556;-45
2024/02/28 02:36:58;;;;;;;201.47;53.53;;;;;;;;;;4979087;28;20177;-45
2024/02/28 02:39:24;;;;;;;203.63;54.77;;;;;;;;;;4993939;28;20891;-44
2024/02/28 02:41:50;;;;;;;204.68;54.08;;;;;;;;;;4993399;28;20460;-46
2024/02/28 02:44:16;;;;;;;205.85;54.83;;;;;;;;;;4992820;28;20542;-46
2024/02/28 02:46:42;;;;;;;207.20;56.00;;;;;;;;;;4993239;28;20177;-45
2024/02/28 02:49:08;;;;;;;207.35;54.90;;;;;;;;;;4990665;28;20612;-46
2024/02/28 02:51:34;;;;;;;206.02;53.88;;;;;;;;;;4988624;28;20200;-47
2024/02/28 02:54:00;;;;;;;207.80;55.03;;;;;;;;;;4995003;28;20200;-47
2024/02/28 02:56:26;;;;;;;203.07;53.15;;;;;;;;;;4992922;28;20470;-46
2024/02/28 02:58:52;;;;;;;208.05;55.00;;;;;;;;;;4991320;28;20186;-46
2024/02/28 03:01:19;;;;;;;207.82;54.95;;;;;;;;;;4987332;28;20254;-46
2024/02/28 03:03:45;;;;;;;208.27;55.35;;;;;;;;;;4992864;28;20227;-46
2024/02/28 03:06:11;;;;;;;208.07;55.43;;;;;;;;;;4988127;28;20272;-46
2024/02/28 03:08:37;;;;;;;208.27;55.73;;;;;;;;;;4994818;28;20427;-46
2024/02/28 03:11:06;;;;;;;207.93;55.33;;;;;;;;;;4993090;28;20470;-47
2024/02/28 03:13:32;;;;;;;208.50;55.00;;;;;;;;;;4991165;28;20431;-46
2024/02/28 03:15:58;;;;;;;208.07;55.57;;;;;;;;;;4989870;28;20185;-46
2024/02/28 03:18:24;;;;;;;208.93;55.87;;;;;;;;;;4986845;28;20417;-46
2024/02/28 03:20:50;;;;;;;208.27;55.57;;;;;;;;;;4979716;28;20804;-47
2024/02/28 03:23:16;;;;;;;210.10;56.80;;;;;;;;;;4988390;28;21034;-46
2024/02/28 03:25:42;;;;;;;212.18;56.70;;;;;;;;;;4994546;28;20419;-46
2024/02/28 03:28:08;;;;;;;209.17;54.87;;;;;;;;;;4989557;28;20188;-46
2024/02/28 03:30:34;;;;;;;208.80;55.23;;;;;;;;;;4989050;28;20491;-46
2024/02/28 03:33:00;;;;;;;208.53;55.50;;;;;;;;;;4990781;28;20475;-48
2024/02/28 03:35:26;;;;;;;210.67;57.30;;;;;;;;;;4994871;28;20900;-48
2024/02/28 03:37:52;;;;;;;212.23;58.10;;;;;;;;;;4994189;28;20896;-46
2024/02/28 03:40:18;;;;;;;208.50;54.67;;;;;;;;;;4990880;28;21007;-46
2024/02/28 03:42:44;;;;;;;210.33;54.93;;;;;;;;;;4994589;28;20975;-47
2024/02/28 03:45:10;;;;;;;212.90;57.17;;;;;;;;;;4994142;28;20420;-46
2024/02/28 03:47:36;;;;;;;210.07;55.53;;;;;;;;;;4990341;28;20546;-46
2024/02/28 03:50:03;;;;;;;209.70;54.93;;;;;;;;;;4977984;28;20444;-46
2024/02/28 03:52:30;;;;;;;210.73;54.90;;;;;;;;;;4994062;28;20809;-46
2024/02/28 03:54:57;;;;;;;208.07;53.10;;;;;;;;;;4993946;28;20169;-48
2024/02/28 03:57:23;;;;;;;212.70;55.55;;;;;;;;;;4994354;28;20169;-46
2024/02/28 03:59:49;;;;;;;210.98;54.95;;;;;;;;;;4994767;28;20177;-46
2024/02/28 04:02:14;;;;;;;209.30;53.70;;;;;;;;;;4994798;28;20566;-46
2024/02/28 04:04:40;;;;;;;206.97;53.30;;;;;;;;;;4993761;28;20797;-46
2024/02/28 04:07:06;;;;;;;209.80;54.57;;;;;;;;;;4993524;28;20497;-46
2024/02/28 04:09:32;;;;;;;209.07;52.90;;;;;;;;;;4993338;28;20452;-46
2024/02/28 04:11:58;;;;;;;210.77;53.33;;;;;;;;;;4994007;28;20432;-46
2024/02/28 04:14:24;;;;;;;212.50;56.10;;;;;;;;;;4994050;28;20256;-46
2024/02/28 04:16:50;;;;;;;212.35;56.38;;;;;;;;;;4993940;28;20412;-48
2024/02/28 04:19:16;;;;;;;209.67;54.40;;;;;;;;;;4994165;28;20247;-48
2024/02/28 04:21:42;;;;;;;207.88;53.00;;;;;;;;;;4994019;28;20472;-48
2024/02/28 04:24:09;;;;;;;209.50;53.70;;;;;;;;;;4994044;28;20236;-46
2024/02/28 04:26:35;;;;;;;208.38;53.08;;;;;;;;;;4993435;28;20419;-46
2024/02/28 04:29:04;;;;;;;209.27;53.53;;;;;;;;;;4993585;28;20180;-46
2024/02/28 04:31:30;;;;;;;211.38;54.30;;;;;;;;;;4993256;28;20436;-46
2024/02/28 04:33:56;;;;;;;211.13;54.28;;;;;;;;;;4993399;28;20260;-46
2024/02/28 04:36:22;;;;;;;210.20;54.22;;;;;;;;;;4993206;28;20173;-48
2024/02/28 04:38:48;;;;;;;212.13;54.43;;;;;;;;;;4992979;28;20180;-47
2024/02/28 04:41:14;;;;;;;211.50;54.93;;;;;;;;;;4992841;28;20479;-46
2024/02/28 04:43:43;;;;;;;212.38;54.45;;;;;;;;;;4993316;28;20970;-46
2024/02/28 04:46:09;;;;;;;211.25;55.88;;;;;;;;;;4993355;28;20188;-46
2024/02/28 04:48:35;;;;;;;212.40;55.30;;;;;;;;;;4993284;28;20193;-47
2024/02/28 04:51:02;;;;;;;212.35;54.42;;;;;;;;;;4992505;28;20460;-48
2024/02/28 04:53:28;;;;;;;213.05;55.42;;;;;;;;;;4992737;28;20191;-46
2024/02/28 04:55:54;;;;;;;212.70;55.58;;;;;;;;;;4992194;28;20180;-47
2024/02/28 04:58:20;;;;;;;211.55;55.03;;;;;;;;;;4992692;28;20177;-47
2024/02/28 05:00:46;;;;;;;218.80;59.75;;;;;;;;;;4992832;28;20219;-46
2024/02/28 05:03:12;;;;;;;214.90;56.85;;;;;;;;;;4992926;28;20177;-46
2024/02/28 05:05:38;;;;;;;213.60;55.03;;;;;;;;;;4992337;28;20653;-46
2024/02/28 05:08:04;;;;;;;211.68;53.90;;;;;;;;;;4992632;28;20408;-46
2024/02/28 05:10:31;;;;;;;210.43;53.60;;;;;;;;;;4992520;28;20204;-48
2024/02/28 05:12:57;;;;;;;212.80;53.97;;;;;;;;;;4992498;28;20224;-46
2024/02/28 05:15:23;;;;;;;215.15;56.88;;;;;;;;;;4992490;28;20177;-46
2024/02/28 05:17:51;;;;;;;213.13;55.27;;;;;;;;;;4992348;28;20185;-47
2024/02/28 05:20:17;;;;;;;213.45;54.47;;;;;;;;;;4991990;28;20439;-45
2024/02/28 05:22:43;;;;;;;214.85;54.38;;;;;;;;;;4992287;28;20224;-48
2024/02/28 05:25:09;;;;;;;216.17;57.43;;;;;;;;;;4991640;28;20259;-46
2024/02/28 05:27:35;;;;;;;215.67;53.77;;;;;;;;;;4992267;28;20412;-46
2024/02/28 05:30:05;;;;;;;218.60;56.80;;;;;;;;;;4990799;28;20448;-46
2024/02/28 05:32:31;;;;;;;214.93;54.50;;;;;;;;;;4983240;28;20920;-46
2024/02/28 05:34:57;;;;;;;214.57;54.90;;;;;;;;;;4990914;28;20200;-45
2024/02/28 05:37:23;;;;;;;213.80;54.50;;;;;;;;;;4991685;28;20420;-46
2024/02/28 05:39:49;;;;;;;214.77;55.17;;;;;;;;;;4979698;28;20508;-46
2024/02/28 05:42:21;;;;;;;214.07;54.03;;;;;;;;;;4991460;28;21009;-46
2024/02/28 05:44:47;;;;;;;215.85;55.33;;;;;;;;;;4991669;28;20420;-46
2024/02/28 05:47:13;;;;;;;213.27;53.92;;;;;;;;;;4991670;28;20187;-46
2024/02/28 05:49:39;;;;;;;212.02;54.00;;;;;;;;;;4991653;28;20200;-46
2024/02/28 05:52:06;;;;;;;213.40;55.67;;;;;;;;;;4991749;28;20740;-47
2024/02/28 05:54:33;;;;;;;213.88;54.70;;;;;;;;;;4991995;28;20523;-48
2024/02/28 05:56:59;;;;;;;213.13;54.75;;;;;;;;;;4991536;28;20170;-46
2024/02/28 05:59:26;;;;;;;213.03;54.20;;;;;;;;;;4991763;28;20187;-48
2024/02/28 06:01:52;;;;;;;212.25;53.40;;;;;;;;;;4991538;28;20904;-46
2024/02/28 06:04:18;;;;;;;214.15;55.08;;;;;;;;;;4991594;28;20192;-47
2024/02/28 06:06:44;;;;;;;215.25;56.65;;;;;;;;;;4991158;28;20180;-48
2024/02/28 06:09:10;;;;;;;213.33;54.50;;;;;;;;;;4991393;28;20188;-46
2024/02/28 06:11:36;;;;;;;215.18;54.80;;;;;;;;;;4991894;28;20444;-48
2024/02/28 06:14:04;;;;;;;214.30;55.30;;;;;;;;;;4991550;28;20169;-46
2024/02/28 06:16:30;;;;;;;216.48;55.03;;;;;;;;;;4991222;28;20408;-46
2024/02/28 06:18:56;;;;;;;213.90;53.92;;;;;;;;;;4991624;28;20538;-47
2024/02/28 06:21:23;;;;;;;214.33;55.00;;;;;;;;;;4991674;28;20204;-46
2024/02/28 06:23:49;;;;;;;214.50;55.10;;;;;;;;;;4991435;28;20463;-46
2024/02/28 06:26:16;;;;;;;213.70;54.40;;;;;;;;;;4991065;28;20593;-46
2024/02/28 06:28:45;;;;;;;213.55;55.38;;;;;;;;;;4991253;28;20731;-46
2024/02/28 06:31:17;;;;;;;212.35;54.58;;;;;;;;;;4991149;28;20292;-46
2024/02/28 06:33:43;;;;;;;213.15;54.72;;;;;;;;;;4991232;28;20206;-48
2024/02/28 06:36:09;;;;;;;211.55;53.97;;;;;;;;;;4991084;28;20232;-46
2024/02/28 06:38:35;;;;;;;215.23;55.80;;;;;;;;;;4994113;28;20172;-47
2024/02/28 06:41:05;;;;;;;214.63;55.78;;;;;;;;;;4994928;28;20635;-47
2024/02/28 06:43:33;;;;;;;212.15;55.90;;;;;;;;;;4995044;28;20184;-47
2024/02/28 06:46:00;;;;;;;214.38;55.70;;;;;;;;;;4994529;28;20188;-46
2024/02/28 06:48:26;;;;;;;216.43;57.55;;;;;;;;;;4995048;28;20608;-47
2024/02/28 06:50:52;;;;;;;214.47;55.67;;;;;;;;;;4994590;28;20204;-47
2024/02/28 06:53:18;;;;;;;215.13;58.30;;;;;;;;;;4994418;28;20626;-48
2024/02/28 06:55:48;;;;;;;213.67;56.40;;;;;;;;;;4984890;28;20440;-46
2024/02/28 06:58:14;;;;;;;215.75;58.38;;;;;;;;;;4979934;28;20704;-46
2024/02/28 07:00:40;;;;;;;213.40;56.17;;;;;;;;;;4991002;28;20288;-48
2024/02/28 07:03:06;;;;;;;212.45;56.10;;;;;;;;;;4983611;28;20416;-47
2024/02/28 07:05:34;;;;;;;216.48;57.05;;;;;;;;;;4992270;28;20215;-46
2024/02/28 07:08:00;;;;;;;216.65;57.25;;;;;;;;;;4990671;28;20192;-47
2024/02/28 07:10:26;;;;;;;214.32;55.92;;;;;;;;;;4989620;28;20539;-47
2024/02/28 07:12:52;;;;;;;215.82;55.35;;;;;;;;;;4987655;28;20673;-46
2024/02/28 07:15:21;;;;;;;215.47;56.17;;;;;;;;;;4985506;28;20193;-47
2024/02/28 07:17:47;;;;;;;220.05;57.85;;;;;;;;;;4990455;28;20421;-47
2024/02/28 07:20:13;;;;;;;214.67;55.27;;;;;;;;;;4993702;28;20180;-46
2024/02/28 07:22:39;;;;;;;217.60;56.60;;;;;;;;;;4990595;28;20901;-48
2024/02/28 07:25:07;;;;;;;227.48;65.22;;;;;;;;;;4989213;28;20474;-47
2024/02/28 07:27:33;;;;;;;215.48;55.95;;;;;;;;;;4988001;28;20199;-46
2024/02/28 07:29:59;;;;;;;218.37;58.97;;;;;;;;;;4985878;28;20251;-48
2024/02/28 07:32:25;;;;;;;218.50;57.85;;;;;;;;;;4982390;28;20815;-46
2024/02/28 07:34:51;;;;;;;216.40;56.33;;;;;;;;;;4989003;28;20181;-46
2024/02/28 07:37:17;;;;;;;217.83;59.17;;;;;;;;;;4991440;28;20176;-47
2024/02/28 07:39:43;;;;;;;216.67;56.87;;;;;;;;;;4990666;28;20455;-46
2024/02/28 07:42:09;;;;;;;216.57;57.20;;;;;;;;;;4987278;28;20478;-46
2024/02/28 07:44:35;;;;;;;216.90;57.43;;;;;;;;;;4985989;28;20596;-48
2024/02/28 07:47:01;;;;;;;216.30;55.40;;;;;;;;;;4991810;28;20760;-46
2024/02/28 07:49:27;;;;;;;218.45;56.60;;;;;;;;;;4989850;28;20792;-46
2024/02/28 07:51:53;;;;;;;217.30;57.63;;;;;;;;;;4982014;28;20224;-46
2024/02/28 07:54:19;;;;;;;219.15;59.65;;;;;;;;;;4989736;28;20861;-48
2024/02/28 07:56:45;;;;;;;219.23;58.10;;;;;;;;;;4989948;28;20177;-48
2024/02/28 07:59:11;;;;;;;215.57;55.55;;;;;;;;;;4986065;28;20453;-47
2024/02/28 08:01:39;;;;;;;217.77;56.70;;;;;;;;;;4991841;28;20236;-47
2024/02/28 08:04:05;;;;;;;219.05;57.97;;;;;;;;;;4980042;28;20408;-48
2024/02/28 08:06:33;;;;;;;218.17;58.13;;;;;;;;;;4988300;28;20665;-46
2024/02/28 08:08:59;;;;;;;216.82;56.67;;;;;;;;;;4987007;28;20860;-47
2024/02/28 08:11:25;;;;;;;219.18;58.85;;;;;;;;;;4984973;28;20587;-47
2024/02/28 08:13:52;;;;;;;221.70;59.47;;;;;;;;;;4982656;28;20177;-45
2024/02/28 08:16:18;;;;;;;218.35;57.30;;;;;;;;;;4976458;28;20252;-47
2024/02/28 08:18:44;;;;;;;223.88;62.35;;;;;;;;;;4982360;28;20261;-48
2024/02/28 08:21:10;;;;;;;219.95;58.55;;;;;;;;;;4984796;28;20684;-48
2024/02/28 08:23:36;;;;;;;220.03;59.83;;;;;;;;;;4986588;28;20196;-47
2024/02/28 08:26:03;;;;;;;219.50;59.17;;;;;;;;;;4984727;28;20420;-47
2024/02/28 08:28:29;;;;;;;222.57;61.13;;;;;;;;;;4991342;28;20181;-47
2024/02/28 08:30:55;;;;;;;220.30;60.20;;;;;;;;;;4991809;28;20199;-47
2024/02/28 08:33:21;;;;;;;221.70;59.07;;;;;;;;;;4989911;28;20605;-46
2024/02/28 08:35:49;;;;;;;226.07;62.67;;;;;;;;;;4991948;28;20499;-47
2024/02/28 08:38:15;;;;;;;221.20;59.95;;;;;;;;;;4981718;28;20492;-48
2024/02/28 08:40:41;;;;;;;221.37;59.60;;;;;;;;;;4989582;28;20275;-47
2024/02/28 08:43:07;;;;;;;224.67;61.40;;;;;;;;;;4991656;28;20408;-46
2024/02/28 08:45:33;;;;;;;220.23;57.90;;;;;;;;;;4992038;28;20411;-46
2024/02/28 08:48:01;;;;;;;225.73;61.83;;;;;;;;;;4991523;28;20406;-46
2024/02/28 08:50:27;;;;;;;221.55;59.60;;;;;;;;;;4991066;28;20595;-46
2024/02/28 08:52:53;;;;;;;221.65;60.22;;;;;;;;;;4991839;28;20191;-45
2024/02/28 08:55:21;;;;;;;224.43;63.70;;;;;;;;;;4983976;28;20180;-46
2024/02/28 08:57:47;;;;;;;225.27;61.97;;;;;;;;;;4991977;28;20772;-44
2024/02/28 09:00:15;;;;;;;218.50;58.33;;;;;;;;;;4991326;28;20174;-45
2024/02/28 09:02:41;;;;;;;228.10;64.75;;;;;;;;;;4991736;28;20441;-45
2024/02/28 09:05:07;;;;;;;223.67;62.43;;;;;;;;;;4991666;28;20554;-46
2024/02/28 09:07:35;;;;;;;222.50;60.28;;;;;;;;;;4988752;28;20553;-46
2024/02/28 09:10:01;;;;;;;222.13;60.42;;;;;;;;;;4991724;28;20186;-46
2024/02/28 09:12:27;;;;;;;227.02;64.45;;;;;;;;;;4991807;28;20207;-46
2024/02/28 09:14:57;;;;;;;224.17;61.83;;;;;;;;;;4983380;28;20205;-45
2024/02/28 09:17:23;;;;;;;224.57;61.20;;;;;;;;;;4991533;28;20426;-45
2024/02/28 09:19:49;;;;;;;223.20;62.35;;;;;;;;;;4991560;28;20237;-45
2024/02/28 09:22:16;;;;;;;222.60;59.90;;;;;;;;;;4991696;28;20677;-46
2024/02/28 09:24:42;;;;;;;221.95;60.97;;;;;;;;;;4992161;28;20587;-45
2024/02/28 09:27:08;;;;;;;222.48;61.22;;;;;;;;;;4991949;28;20279;-45
2024/02/28 09:29:34;;;;;;;225.40;62.97;;;;;;;;;;4985561;28;20771;-45
2024/02/28 09:32:00;;;;;;;223.35;61.00;;;;;;;;;;4987717;28;20863;-45
2024/02/28 09:34:26;;;;;;;222.45;60.33;;;;;;;;;;4986664;28;20190;-45
2024/02/28 09:36:52;;;;;;;225.37;63.00;;;;;;;;;;4991059;28;20217;-46
2024/02/28 09:39:18;;;;;;;224.45;61.40;;;;;;;;;;4991770;28;20413;-45
2024/02/28 09:41:44;;;;;;;223.68;62.72;;;;;;;;;;4990561;28;20210;-46
2024/02/28 09:44:11;;;;;;;230.10;68.10;;;;;;;;;;4991418;28;20177;-45
2024/02/28 09:46:37;;;;;;;228.05;66.05;;;;;;;;;;4991357;28;20319;-45
2024/02/28 09:49:06;;;;;;;224.57;63.03;;;;;;;;;;4991582;28;20181;-45
2024/02/28 09:51:35;;;;;;;228.45;65.90;;;;;;;;;;4991306;28;20744;-46
2024/02/28 09:54:04;;;;;;;227.57;65.93;;;;;;;;;;4991227;28;20225;-45
2024/02/28 09:56:31;;;;;;;227.18;66.00;;;;;;;;;;4991006;28;20231;-46
2024/02/28 09:58:57;;;;;;;227.82;64.25;;;;;;;;;;4991069;28;20182;-46
2024/02/28 10:01:23;;;;;;;227.98;66.15;;;;;;;;;;4990525;28;20202;-45
2024/02/28 10:03:52;;;;;;;226.43;64.73;;;;;;;;;;4991101;28;20180;-46
2024/02/28 10:06:18;;;;;;;229.50;65.53;;;;;;;;;;4991177;28;20416;-46
2024/02/28 10:08:47;;;;;;;234.02;70.95;;;;;;;;;;4991160;28;20180;-45
2024/02/28 10:11:20;;;;;;;230.60;69.93;;;;;;;;;;4991864;28;20200;-45
2024/02/28 10:13:46;;;;;;;230.63;66.78;;;;;;;;;;4994705;28;20354;-46
2024/02/28 10:16:15;;;;;;;231.68;67.28;;;;;;;;;;4994422;28;20288;-45
2024/02/28 10:18:41;;;;;;;233.23;70.57;;;;;;;;;;4993732;28;20175;-46
2024/02/28 10:21:07;;;;;;;234.67;69.10;;;;;;;;;;4983149;28;20275;-45
2024/02/28 10:23:33;;;;;;;238.15;71.00;;;;;;;;;;4989626;28;21025;-45
2024/02/28 10:26:02;;;;;;;243.17;77.93;;;;;;;;;;4992828;28;20211;-45
2024/02/28 10:28:28;;;;;;;248.93;83.05;;;;;;;;;;4992816;28;20454;-46
2024/02/28 10:30:54;;;;;;;249.02;78.43;;;;;;;;;;4992957;28;20707;-46
2024/02/28 10:33:20;;;;;;;246.68;77.18;;;;;;;;;;4984296;28;20177;-46
2024/02/28 10:35:51;;;;;;;249.47;82.10;;;;;;;;;;4983124;28;20175;-47
2024/02/28 10:38:17;;;;;;;248.73;81.68;;;;;;;;;;4984200;28;20470;-46
2024/02/28 10:40:43;;;;;;;251.37;84.60;;;;;;;;;;4978057;28;20186;-46
2024/02/28 10:43:10;;;;;;;243.98;78.03;;;;;;;;;;4989723;28;20840;-46
2024/02/28 10:45:38;;;;;;;250.07;86.28;;;;;;;;;;4994234;28;20177;-45
2024/02/28 10:48:04;;;;;;;244.48;79.47;;;;;;;;;;4994360;28;20185;-45
2024/02/28 10:50:30;;;;;;;247.52;81.68;;;;;;;;;;4994451;28;20202;-46
2024/02/28 10:53:00;;;;;;;249.27;82.25;;;;;;;;;;4994154;28;20221;-46
2024/02/28 10:55:28;;;;;;;246.90;81.18;;;;;;;;;;4994561;28;20181;-47
2024/02/28 10:57:58;;;;;;;246.32;79.13;;;;;;;;;;4994237;28;20403;-46
2024/02/28 11:00:24;;;;;;;248.85;83.50;;;;;;;;;;4994279;28;20191;-46
2024/02/28 11:02:51;;;;;;;245.82;78.80;;;;;;;;;;4994135;28;20204;-46
2024/02/28 11:05:16;;;;;;;250.90;85.05;;;;;;;;;;4993959;28;20177;-47
2024/02/28 11:07:44;;;;;;;248.02;82.45;;;;;;;;;;4994024;28;20200;-47
2024/02/28 11:10:10;;;;;;;248.55;79.35;;;;;;;;;;4994054;28;20205;-47
2024/02/28 11:12:37;;;;;;;250.83;79.63;;;;;;;;;;4994045;28;20201;-47
2024/02/28 11:15:06;;;;;;;253.43;85.07;;;;;;;;;;4994038;28;20761;-46
2024/02/28 11:17:33;;;;;;;253.20;88.57;;;;;;;;;;4994126;28;20436;-46
2024/02/28 11:19:59;;;;;;;249.57;82.27;;;;;;;;;;4993806;28;20423;-47
2024/02/28 11:22:28;;;;;;;249.70;83.47;;;;;;;;;;4993635;28;20958;-46
2024/02/28 11:24:57;;;;;;;255.00;87.70;;;;;;;;;;4993563;28;20777;-47
2024/02/28 11:27:24;;;;;;;252.90;84.60;;;;;;;;;;4993709;28;20469;-48
2024/02/28 11:29:50;;;;;;;251.30;83.23;;;;;;;;;;4993577;28;20487;-46
2024/02/28 11:32:16;;;;;;;259.37;93.23;;;;;;;;;;4984583;28;20650;-46
2024/02/28 11:34:43;;;;;;;252.73;85.97;;;;;;;;;;4993175;28;20446;-46
2024/02/28 11:37:09;;;;;;;246.93;78.80;;;;;;;;;;4993402;28;20473;-46
2024/02/28 11:39:36;;;;;;;251.67;82.47;;;;;;;;;;4986622;28;20411;-46
2024/02/28 11:42:12;;;;;;;250.97;86.33;;;;;;;;;;4993095;28;20452;-46
2024/02/28 11:44:39;;;;;;;252.13;89.03;;;;;;;;;;4993549;28;20481;-46
2024/02/28 11:47:05;;;;;;;267.10;99.70;;;;;;;;;;4991075;28;20514;-45
2024/02/28 11:49:33;;;;;;;245.07;77.97;;;;;;;;;;4978874;28;20408;-46
2024/02/28 11:51:59;;;;;;;251.10;83.90;;;;;;;;;;4988842;28;20442;-46
2024/02/28 11:54:25;;;;;;;250.83;85.57;;;;;;;;;;4991999;28;20904;-48
2024/02/28 11:56:51;;;;;;;253.43;87.57;;;;;;;;;;4992802;28;20930;-46
2024/02/28 11:59:18;;;;;;;251.00;84.30;;;;;;;;;;4992137;28;20781;-46
2024/02/28 12:01:44;;;;;;;253.57;87.57;;;;;;;;;;4992829;28;20970;-46
2024/02/28 12:04:10;;;;;;;252.87;86.73;;;;;;;;;;4993300;28;20839;-45
2024/02/28 12:06:37;;;;;;;250.83;86.00;;;;;;;;;;4992977;28;20412;-46
2024/02/28 12:09:09;;;;;;;251.47;87.07;;;;;;;;;;4993134;28;20806;-46
2024/02/28 12:11:35;;;;;;;253.00;86.67;;;;;;;;;;4988289;28;20467;-46
2024/02/28 12:14:06;;;;;;;258.87;94.63;;;;;;;;;;4992270;28;20790;-47
2024/02/28 12:16:32;;;;;;;251.07;84.37;;;;;;;;;;4992600;28;20407;-48
2024/02/28 12:18:58;;;;;;;260.37;99.80;;;;;;;;;;4992781;28;20497;-46
2024/02/28 12:21:24;;;;;;;253.20;86.77;;;;;;;;;;4992800;28;20428;-45
2024/02/28 12:23:50;;;;;;;253.60;88.40;;;;;;;;;;4992793;28;20422;-46
2024/02/28 12:26:20;;;;;;;251.47;84.13;;;;;;;;;;4992622;28;20419;-45
2024/02/28 12:28:46;;;;;;;250.53;84.27;;;;;;;;;;4992575;28;20428;-47
2024/02/28 12:31:13;;;;;;;251.10;86.57;;;;;;;;;;4992611;28;20471;-46
2024/02/28 12:33:39;;;;;;;248.67;82.23;;;;;;;;;;4992523;28;20445;-47
2024/02/28 12:36:06;;;;;;;250.53;86.83;;;;;;;;;;4992263;28;20412;-46
2024/02/28 12:38:32;;;;;;;248.67;83.70;;;;;;;;;;4992433;28;20443;-46
2024/02/28 12:40:58;;;;;;;249.17;83.57;;;;;;;;;;4992017;28;20467;-45
2024/02/28 12:43:25;;;;;;;252.23;89.23;;;;;;;;;;4992400;28;20416;-46
2024/02/28 12:45:51;;;;;;;253.50;88.27;;;;;;;;;;4991955;28;20408;-46
2024/02/28 12:48:17;;;;;;;250.07;85.43;;;;;;;;;;4992486;28;20416;-46
2024/02/28 12:50:43;;;;;;;252.97;87.90;;;;;;;;;;4992251;28;20467;-45
2024/02/28 12:53:09;;;;;;;249.57;84.63;;;;;;;;;;4992991;28;20435;-46
2024/02/28 12:55:35;;;;;;;253.27;89.57;;;;;;;;;;4992095;28;20412;-47
2024/02/28 12:58:05;;;;;;;253.30;88.10;;;;;;;;;;4992042;28;20497;-48
2024/02/28 13:00:31;;;;;;;251.33;89.60;;;;;;;;;;4992273;28;20420;-47
2024/02/28 13:02:57;;;;;;;250.10;85.40;;;;;;;;;;4991939;28;20946;-47
2024/02/28 13:05:23;;;;;;;252.67;88.63;;;;;;;;;;4991966;28;20478;-46
2024/02/28 13:07:49;;;;;;;253.10;88.47;;;;;;;;;;4992374;28;20764;-46
2024/02/28 13:10:15;;;;;;;253.90;89.73;;;;;;;;;;4991829;28;20509;-47
2024/02/28 13:12:41;;;;;;;253.57;89.90;;;;;;;;;;4991907;28;20522;-47
2024/02/28 13:15:07;;;;;;;252.97;90.10;;;;;;;;;;4991773;28;20414;-46
2024/02/28 13:17:33;;;;;;;249.47;85.60;;;;;;;;;;4991946;28;20891;-46
2024/02/28 13:19:59;;;;;;;253.17;86.17;;;;;;;;;;4991825;28;20499;-45
2024/02/28 13:22:26;;;;;;;250.50;86.37;;;;;;;;;;4991757;28;20811;-47
2024/02/28 13:24:52;;;;;;;254.63;88.93;;;;;;;;;;4991606;28;20440;-46
2024/02/28 13:27:17;;;;;;;249.50;84.87;;;;;;;;;;4991339;28;20191;-47
2024/02/28 13:29:43;;;;;;;249.17;81.57;;;;;;;;;;4991460;28;20534;-45
2024/02/28 13:32:10;;;;;;;246.97;81.63;;;;;;;;;;4980556;28;20448;-45
2024/02/28 13:34:36;;;;;;;247.43;80.72;;;;;;;;;;4987926;28;20408;-45
2024/02/28 13:37:02;;;;;;;245.30;82.33;;;;;;;;;;4991312;28;20203;-46
2024/02/28 13:39:29;;;;;;;249.10;85.60;;;;;;;;;;4991585;28;20808;-46
2024/02/28 13:41:55;;;;;;;253.90;92.80;;;;;;;;;;4989600;28;20457;-47
2024/02/28 13:44:21;;;;;;;246.17;84.10;;;;;;;;;;4991213;28;20406;-47
2024/02/28 13:46:47;;;;;;;249.80;85.47;;;;;;;;;;4995441;28;20415;-46
2024/02/28 13:49:14;;;;;;;247.97;83.60;;;;;;;;;;4998048;28;20418;-46
2024/02/28 13:51:40;;;;;;;245.90;82.97;;;;;;;;;;4997662;28;20559;-46
2024/02/28 13:54:06;;;;;;;247.27;87.13;;;;;;;;;;4997565;28;20844;-46
2024/02/28 13:56:32;;;;;;;244.73;80.22;;;;;;;;;;4997648;28;20416;-45
2024/02/28 13:58:58;;;;;;;249.20;86.40;;;;;;;;;;4998066;28;20193;-45